createdAt,value
2024-05-09T00:02:16.491Z,101539.94
2024-05-09T00:04:43.506Z,101527.69
2024-05-09T00:07:10.225Z,101538.00
2024-05-09T00:09:37.737Z,101541.03
2024-05-09T00:12:04.710Z,101534.06
2024-05-09T00:14:31.563Z,101530.84
2024-05-09T00:16:58.304Z,101532.25
2024-05-09T00:19:25.123Z,101528.88
2024-05-09T00:21:51.796Z,101524.03
2024-05-09T00:24:18.487Z,101529.84
2024-05-09T00:26:45.101Z,101522.75
2024-05-09T00:29:11.818Z,101525.31
2024-05-09T00:31:38.541Z,101524.19
2024-05-09T00:34:05.443Z,101528.78
2024-05-09T00:36:32.397Z,101526.59
2024-05-09T00:38:59.060Z,101523.72
2024-05-09T00:41:25.812Z,101519.13
2024-05-09T00:43:52.522Z,101534.59
2024-05-09T00:46:19.274Z,101530.69
2024-05-09T00:48:45.969Z,101529.16
2024-05-09T00:51:12.863Z,101525.91
2024-05-09T00:53:40.062Z,101518.94
2024-05-09T00:56:07.802Z,101518.25
2024-05-09T00:58:34.644Z,101526.72
2024-05-09T01:01:01.826Z,101518.84
2024-05-09T01:03:28.696Z,101521.22
2024-05-09T01:05:55.722Z,101515.09
2024-05-09T01:08:22.592Z,101522.06
2024-05-09T01:10:49.487Z,101512.03
2024-05-09T01:13:16.337Z,101519.84
2024-05-09T01:15:43.312Z,101513.72
2024-05-09T01:18:12.136Z,101516.44
2024-05-09T01:20:43.202Z,101519.16
2024-05-09T01:23:14.198Z,101537.13
2024-05-09T01:25:42.523Z,101520.16
2024-05-09T01:28:09.194Z,101521.47
2024-05-09T01:30:37.533Z,101522.81
2024-05-09T01:33:09.914Z,101518.41
2024-05-09T01:35:39.213Z,101516.00
2024-05-09T01:38:06.860Z,101515.63
2024-05-09T01:40:38.502Z,101526.16
2024-05-09T01:43:07.822Z,101528.25
2024-05-09T01:45:34.863Z,101516.19
2024-05-09T01:48:02.413Z,101527.25
2024-05-09T01:50:37.872Z,101535.88
2024-05-09T01:53:09.032Z,101525.47
2024-05-09T01:55:35.823Z,101526.50
2024-05-09T01:58:02.517Z,101523.78
2024-05-09T02:00:38.167Z,101540.38
2024-05-09T02:03:10.220Z,101538.31
2024-05-09T02:05:37.889Z,101544.63
2024-05-09T02:08:05.713Z,101536.91
2024-05-09T02:10:33.448Z,101546.41
2024-05-09T02:13:00.667Z,101543.31
2024-05-09T02:15:27.315Z,101541.91
2024-05-09T02:17:54.338Z,101535.94
2024-05-09T02:20:30.220Z,101532.53
2024-05-09T02:23:04.263Z,101544.56
2024-05-09T02:25:31.662Z,101547.28
2024-05-09T02:27:58.408Z,101545.13
2024-05-09T02:30:35.043Z,101540.03
2024-05-09T02:33:06.485Z,101541.06
2024-05-09T02:35:33.664Z,101536.97
2024-05-09T02:38:00.601Z,101549.00
2024-05-09T02:40:35.705Z,101549.31
2024-05-09T02:43:05.374Z,101537.59
2024-05-09T02:45:32.246Z,101545.75
2024-05-09T02:47:59.224Z,101544.06
2024-05-09T02:50:34.250Z,101541.47
2024-05-09T02:53:05.976Z,101530.06
2024-05-09T02:55:33.070Z,101533.97
2024-05-09T02:57:59.977Z,101536.13
2024-05-09T03:00:35.074Z,101530.34
2024-05-09T03:03:14.680Z,101539.06
2024-05-09T03:05:45.701Z,101540.22
2024-05-09T03:08:12.937Z,101531.41
2024-05-09T03:10:39.998Z,101547.34
2024-05-09T03:13:15.440Z,101541.63
2024-05-09T03:15:43.628Z,101544.16
2024-05-09T03:18:13.751Z,101541.44
2024-05-09T03:20:40.890Z,101547.91
2024-05-09T03:23:09.231Z,101549.06
2024-05-09T03:25:36.984Z,101543.78
2024-05-09T03:28:06.828Z,101544.78
2024-05-09T03:30:40.846Z,101545.94
2024-05-09T03:33:19.374Z,101541.22
2024-05-09T03:35:48.362Z,101539.34
2024-05-09T03:38:15.698Z,101545.94
2024-05-09T03:40:46.804Z,101556.09
2024-05-09T03:43:14.164Z,101555.56
2024-05-09T03:45:42.164Z,101554.00
2024-05-09T03:48:09.127Z,101558.88
2024-05-09T03:50:36.880Z,101551.91
2024-05-09T03:53:04.641Z,101554.78
2024-05-09T03:55:31.581Z,101561.22
2024-05-09T03:57:58.226Z,101562.06
2024-05-09T04:00:31.551Z,101561.22
2024-05-09T04:03:06.398Z,101554.09
2024-05-09T04:05:35.150Z,101574.22
2024-05-09T04:08:02.365Z,101563.78
2024-05-09T04:10:33.618Z,101563.47
2024-05-09T04:13:02.043Z,101568.88
2024-05-09T04:15:28.955Z,101561.06
2024-05-09T04:17:56.105Z,101565.47
2024-05-09T04:20:33.605Z,101567.72
2024-05-09T04:23:06.260Z,101574.41
2024-05-09T04:25:33.389Z,101571.41
2024-05-09T04:28:00.185Z,101574.19
2024-05-09T04:30:36.046Z,101577.69
2024-05-09T04:33:07.694Z,101575.38
2024-05-09T04:35:36.092Z,101577.06
2024-05-09T04:38:02.973Z,101577.94
2024-05-09T04:40:34.160Z,101578.63
2024-05-09T04:43:04.077Z,101582.06
2024-05-09T04:45:30.844Z,101580.69
2024-05-09T04:47:58.095Z,101585.06
2024-05-09T04:50:33.392Z,101581.59
2024-05-09T04:53:04.371Z,101589.03
2024-05-09T04:55:31.715Z,101582.34
2024-05-09T04:57:58.491Z,101589.91
2024-05-09T05:00:34.164Z,101584.38
2024-05-09T05:03:09.323Z,101585.41
2024-05-09T05:05:41.037Z,101586.69
2024-05-09T05:08:15.130Z,101585.50
2024-05-09T05:10:42.906Z,101589.09
2024-05-09T05:13:23.959Z,101584.84
2024-05-09T05:15:57.337Z,101595.56
2024-05-09T05:18:26.233Z,101592.50
2024-05-09T05:20:54.589Z,101595.44
2024-05-09T05:23:22.249Z,101592.91
2024-05-09T05:25:50.180Z,101591.56
2024-05-09T05:28:17.455Z,101596.81
2024-05-09T05:30:44.618Z,101592.59
2024-05-09T05:33:13.628Z,101592.75
2024-05-09T05:35:41.323Z,101594.09
2024-05-09T05:38:09.014Z,101597.50
2024-05-09T05:40:38.420Z,101603.50
2024-05-09T05:43:07.435Z,101596.00
2024-05-09T05:45:34.127Z,101601.31
2024-05-09T05:48:04.040Z,101610.81
2024-05-09T05:50:35.883Z,101599.41
2024-05-09T05:53:09.719Z,101608.06
2024-05-09T05:55:39.070Z,101601.59
2024-05-09T05:58:08.297Z,101603.84
2024-05-09T06:00:38.556Z,101604.53
2024-05-09T06:03:08.283Z,101597.88
2024-05-09T06:05:36.348Z,101597.06
2024-05-09T06:08:03.126Z,101602.53
2024-05-09T06:10:37.546Z,101604.09
2024-05-09T06:13:07.236Z,101609.03
2024-05-09T06:15:34.099Z,101606.66
2024-05-09T06:18:01.054Z,101610.06
2024-05-09T06:20:35.446Z,101620.13
2024-05-09T06:23:07.576Z,101611.78
2024-05-09T06:25:35.300Z,101611.09
2024-05-09T06:28:02.588Z,101622.16
2024-05-09T06:30:37.850Z,101620.94
2024-05-09T06:33:08.747Z,101621.97
2024-05-09T06:35:36.358Z,101622.50
2024-05-09T06:38:03.248Z,101621.63
2024-05-09T06:40:37.140Z,101626.56
2024-05-09T06:43:11.051Z,101634.75
2024-05-09T06:45:39.678Z,101628.84
2024-05-09T06:48:07.570Z,101631.91
2024-05-09T06:50:37.961Z,101636.50
2024-05-09T06:53:06.313Z,101631.56
2024-05-09T06:55:33.152Z,101638.88
2024-05-09T06:57:59.818Z,101639.25
2024-05-09T07:00:34.641Z,101639.06
2024-05-09T07:03:18.298Z,101644.88
2024-05-09T07:05:47.668Z,101631.94
2024-05-09T07:08:15.935Z,101630.41
2024-05-09T07:10:42.906Z,101644.69
2024-05-09T07:13:10.630Z,101633.63
2024-05-09T07:15:37.608Z,101633.63
2024-05-09T07:18:11.799Z,101644.91
2024-05-09T07:20:40.011Z,101648.66
2024-05-09T07:23:10.811Z,101649.97
2024-05-09T07:25:38.395Z,101650.00
2024-05-09T07:28:05.525Z,101638.44
2024-05-09T07:30:34.451Z,101635.53
2024-05-09T07:33:02.933Z,101634.50
2024-05-09T07:35:30.778Z,101648.63
2024-05-09T07:37:57.817Z,101641.81
2024-05-09T07:40:33.044Z,101657.16
2024-05-09T07:43:11.769Z,101645.41
2024-05-09T07:45:48.601Z,101640.78
2024-05-09T07:53:38.572Z,101661.25
2024-05-09T07:56:07.513Z,101643.56
2024-05-09T07:58:34.749Z,101653.41
2024-05-09T08:01:02.884Z,101651.34
2024-05-09T08:03:29.805Z,101648.97
2024-05-09T08:05:56.648Z,101649.31
2024-05-09T08:08:23.480Z,101652.91
2024-05-09T08:10:50.975Z,101651.00
2024-05-09T08:13:17.916Z,101656.28
2024-05-09T08:15:44.931Z,101654.06
2024-05-09T08:18:11.984Z,101654.06
2024-05-09T08:20:39.938Z,101636.69
2024-05-09T08:23:07.092Z,101656.78
2024-05-09T08:25:33.736Z,101647.41
2024-05-09T08:28:00.593Z,101662.56
2024-05-09T08:30:33.633Z,101644.34
2024-05-09T08:33:05.108Z,101654.22
2024-05-09T08:35:33.014Z,101655.03
2024-05-09T08:37:59.821Z,101650.59
2024-05-09T08:40:33.737Z,101657.44
2024-05-09T08:43:03.176Z,101676.19
2024-05-09T08:45:30.914Z,101672.63
2024-05-09T08:47:59.624Z,101666.28
2024-05-09T08:50:32.520Z,101682.66
2024-05-09T08:53:05.686Z,101692.19
2024-05-09T08:55:32.764Z,101661.19
2024-05-09T08:58:01.279Z,101656.06
2024-05-09T09:00:35.940Z,101670.06
2024-05-09T09:03:06.156Z,101681.97
2024-05-09T09:05:34.139Z,101659.81
2024-05-09T09:08:04.798Z,101656.41
2024-05-09T09:10:32.860Z,101644.81
2024-05-09T09:13:09.438Z,101658.25
2024-05-09T09:15:49.839Z,101649.91
2024-05-09T09:18:17.469Z,101674.63
2024-05-09T09:20:44.790Z,101652.28
2024-05-09T09:23:11.569Z,101656.38
2024-05-09T09:25:41.172Z,101663.13
2024-05-09T09:28:08.709Z,101654.63
2024-05-09T09:30:41.316Z,101652.19
2024-05-09T09:33:09.077Z,101654.94
2024-05-09T09:35:36.313Z,101651.03
2024-05-09T09:38:04.491Z,101656.53
2024-05-09T09:40:37.162Z,101664.88
2024-05-09T09:43:14.198Z,101671.22
2024-05-09T09:45:42.046Z,101668.69
2024-05-09T09:48:10.462Z,101665.94
2024-05-09T09:50:37.755Z,101665.19
2024-05-09T09:53:05.156Z,101659.03
2024-05-09T09:55:32.636Z,101660.03
2024-05-09T09:57:59.904Z,101664.66
2024-05-09T10:00:32.531Z,101656.25
2024-05-09T10:03:02.390Z,101662.16
2024-05-09T10:05:30.304Z,101666.06
2024-05-09T10:07:57.911Z,101659.78
2024-05-09T10:10:31.878Z,101673.78
2024-05-09T10:13:00.744Z,101681.13
2024-05-09T10:15:27.939Z,101666.63
2024-05-09T10:17:55.006Z,101658.59
2024-05-09T10:20:28.030Z,101653.56
2024-05-09T10:22:58.890Z,101666.47
2024-05-09T10:25:26.929Z,101667.81
2024-05-09T10:27:56.462Z,101655.72
2024-05-09T10:30:34.073Z,101652.81
2024-05-09T10:33:03.089Z,101653.34
2024-05-09T10:35:31.472Z,101649.63
2024-05-09T10:38:05.804Z,101659.69
2024-05-09T10:40:32.881Z,101665.97
2024-05-09T10:43:02.566Z,101658.97
2024-05-09T10:45:31.978Z,101658.47
2024-05-09T10:47:58.952Z,101649.31
2024-05-09T10:50:29.201Z,101658.06
2024-05-09T10:53:00.618Z,101646.63
2024-05-09T10:55:27.611Z,101657.88
2024-05-09T10:57:54.543Z,101652.22
2024-05-09T11:00:27.689Z,101635.53
2024-05-09T11:03:00.310Z,101645.91
2024-05-09T11:05:27.519Z,101639.72
2024-05-09T11:07:55.070Z,101640.06
2024-05-09T11:10:27.755Z,101643.72
2024-05-09T11:13:00.350Z,101639.44
2024-05-09T11:15:40.223Z,101626.75
2024-05-09T11:18:07.532Z,101633.22
2024-05-09T11:20:35.762Z,101642.56
2024-05-09T11:23:08.692Z,101634.63
2024-05-09T11:25:35.418Z,101640.88
2024-05-09T11:28:04.853Z,101628.97
2024-05-09T11:30:35.329Z,101624.88
2024-05-09T11:33:02.103Z,101627.63
2024-05-09T11:35:29.475Z,101629.41
2024-05-09T11:37:56.226Z,101628.31
2024-05-09T11:40:25.870Z,101619.50
2024-05-09T11:42:59.248Z,101613.81
2024-05-09T11:45:25.971Z,101620.03
2024-05-09T11:47:53.310Z,101614.81
2024-05-09T11:50:27.130Z,101617.59
2024-05-09T11:52:57.152Z,101609.91
2024-05-09T11:55:27.756Z,101614.03
2024-05-09T11:57:55.838Z,101615.91
2024-05-09T12:00:29.761Z,101604.81
2024-05-09T12:03:05.176Z,101615.59
2024-05-09T12:05:33.139Z,101608.16
2024-05-09T12:08:00.792Z,101613.63
2024-05-09T12:10:33.180Z,101605.44
2024-05-09T12:13:03.796Z,101596.22
2024-05-09T12:15:32.186Z,101596.72
2024-05-09T12:18:02.541Z,101593.59
2024-05-09T12:20:36.580Z,101594.16
2024-05-09T12:23:06.059Z,101593.41
2024-05-09T12:25:32.993Z,101594.94
2024-05-09T12:28:00.152Z,101582.44
2024-05-09T12:30:35.474Z,101579.22
2024-05-09T12:35:32.858Z,101583.25
2024-05-09T12:38:00.336Z,101572.22
2024-05-09T12:40:35.425Z,101574.59
2024-05-09T12:43:06.146Z,101569.13
2024-05-09T12:45:33.300Z,101576.34
2024-05-09T12:48:00.372Z,101562.97
2024-05-09T12:50:32.508Z,101562.59
2024-05-09T12:53:01.711Z,101564.78
2024-05-09T12:55:33.472Z,101554.72
2024-05-09T12:58:06.801Z,101557.22
2024-05-09T13:00:34.463Z,101549.03
2024-05-09T13:03:01.666Z,101551.94
2024-05-09T13:05:29.223Z,101559.16
2024-05-09T13:07:56.938Z,101546.09
2024-05-09T13:10:31.179Z,101547.31
2024-05-09T13:13:00.561Z,101545.91
2024-05-09T13:15:27.779Z,101542.66
2024-05-09T13:17:57.006Z,101528.63
2024-05-09T13:20:31.787Z,101532.91
2024-05-09T13:23:01.697Z,101533.56
2024-05-09T13:25:28.473Z,101524.88
2024-05-09T13:27:56.191Z,101532.22
2024-05-09T13:30:29.734Z,101523.19
2024-05-09T13:33:06.555Z,101516.84
2024-05-09T13:35:35.524Z,101519.56
2024-05-09T13:38:03.696Z,101521.25
2024-05-09T13:40:34.464Z,101510.16
2024-05-09T13:43:04.540Z,101506.88
2024-05-09T13:45:31.667Z,101521.19
2024-05-09T13:47:58.747Z,101509.97
2024-05-09T13:50:33.267Z,101507.25
2024-05-09T13:53:02.974Z,101501.13
2024-05-09T13:55:29.718Z,101503.84
2024-05-09T13:57:56.493Z,101501.31
2024-05-09T14:00:37.718Z,101498.63
2024-05-09T14:03:10.304Z,101506.84
2024-05-09T14:05:37.181Z,101487.59
2024-05-09T14:08:04.211Z,101482.66
2024-05-09T14:10:32.047Z,101482.44
2024-05-09T14:13:00.062Z,101487.53
2024-05-09T14:15:27.009Z,101489.25
2024-05-09T14:17:54.480Z,101488.75
2024-05-09T14:20:30.333Z,101483.16
2024-05-09T14:22:59.331Z,101485.22
2024-05-09T14:25:28.575Z,101476.84
2024-05-09T14:27:57.451Z,101483.06
2024-05-09T14:30:31.016Z,101483.09
2024-05-09T14:33:04.160Z,101472.19
2024-05-09T14:35:30.999Z,101471.81
2024-05-09T14:37:57.748Z,101471.59
2024-05-09T14:40:36.198Z,101471.22
2024-05-09T14:43:08.144Z,101473.59
2024-05-09T14:45:35.332Z,101465.38
2024-05-09T14:48:02.837Z,101460.44
2024-05-09T14:50:35.859Z,101470.56
2024-05-09T14:53:06.624Z,101461.59
2024-05-09T14:55:39.314Z,101460.88
2024-05-09T14:58:07.500Z,101458.25
2024-05-09T15:00:47.749Z,101460.03
2024-05-09T15:03:18.404Z,101454.66
2024-05-09T15:05:45.377Z,101446.19
2024-05-09T15:08:12.244Z,101452.00
2024-05-09T15:10:39.295Z,101450.09
2024-05-09T15:13:08.065Z,101448.28
2024-05-09T15:15:36.762Z,101447.41
2024-05-09T15:18:05.046Z,101453.00
2024-05-09T15:20:35.968Z,101445.03
2024-05-09T15:23:05.277Z,101447.81
2024-05-09T15:25:36.170Z,101448.63
2024-05-09T15:28:07.664Z,101455.34
2024-05-09T15:30:35.296Z,101448.94
2024-05-09T15:33:06.805Z,101444.72
2024-05-09T15:35:34.688Z,101447.31
2024-05-09T15:38:03.195Z,101445.28
2024-05-09T15:40:37.679Z,101440.50
2024-05-09T15:43:08.051Z,101444.63
2024-05-09T15:45:35.707Z,101438.41
2024-05-09T15:48:03.263Z,101437.41
2024-05-09T15:50:37.141Z,101437.19
2024-05-09T15:53:08.240Z,101433.88
2024-05-09T15:55:36.001Z,101431.88
2024-05-09T15:58:04.323Z,101434.75
2024-05-09T16:00:38.718Z,101425.97
2024-05-09T16:03:12.037Z,101433.59
2024-05-09T16:05:41.035Z,101448.41
2024-05-09T16:08:08.280Z,101441.97
2024-05-09T16:10:36.075Z,101438.91
2024-05-09T16:13:03.568Z,101434.75
2024-05-09T16:15:30.964Z,101434.94
2024-05-09T16:17:57.921Z,101430.41
2024-05-09T16:20:34.419Z,101420.13
2024-05-09T16:23:06.511Z,101424.56
2024-05-09T16:25:33.472Z,101424.28
2024-05-09T16:28:00.407Z,101420.34
2024-05-09T16:30:34.186Z,101432.72
2024-05-09T16:33:04.298Z,101424.09
2024-05-09T16:35:31.899Z,101427.50
2024-05-09T16:37:58.725Z,101424.59
2024-05-09T16:40:34.427Z,101432.13
2024-05-09T16:43:05.860Z,101432.84
2024-05-09T16:45:33.441Z,101431.94
2024-05-09T16:48:00.705Z,101431.84
2024-05-09T16:50:32.635Z,101428.47
2024-05-09T16:53:01.892Z,101424.28
2024-05-09T16:55:28.877Z,101442.09
2024-05-09T16:57:57.083Z,101433.13
2024-05-09T17:00:35.152Z,101437.09
2024-05-09T17:03:08.416Z,101422.72
2024-05-09T17:05:35.995Z,101430.19
2024-05-09T17:08:03.231Z,101431.53
2024-05-09T17:10:33.581Z,101423.63
2024-05-09T17:13:03.237Z,101424.16
2024-05-09T17:15:31.029Z,101434.38
2024-05-09T17:17:58.194Z,101432.94
2024-05-09T17:20:31.886Z,101424.81
2024-05-09T17:23:02.822Z,101436.97
2024-05-09T17:25:29.691Z,101437.34
2024-05-09T17:27:57.062Z,101439.22
2024-05-09T17:30:32.073Z,101431.34
2024-05-09T17:33:03.846Z,101441.88
2024-05-09T17:35:31.711Z,101440.84
2024-05-09T17:37:59.784Z,101448.09
2024-05-09T17:40:32.751Z,101448.84
2024-05-09T17:43:03.201Z,101449.09
2024-05-09T17:45:30.355Z,101452.44
2024-05-09T17:47:57.601Z,101446.56
2024-05-09T17:50:31.437Z,101455.34
2024-05-09T17:53:02.403Z,101459.47
2024-05-09T17:55:29.352Z,101458.84
2024-05-09T17:57:56.271Z,101458.34
2024-05-09T18:00:33.242Z,101459.22
2024-05-09T18:03:06.401Z,101465.00
2024-05-09T18:05:34.749Z,101464.50
2024-05-09T18:08:01.743Z,101470.34
2024-05-09T18:10:35.237Z,101470.88
2024-05-09T18:13:06.175Z,101475.50
2024-05-09T18:15:33.608Z,101471.72
2024-05-09T18:18:00.914Z,101472.75
2024-05-09T18:20:37.717Z,101470.53
2024-05-09T18:23:10.446Z,101472.59
2024-05-09T18:25:37.340Z,101475.16
2024-05-09T18:28:04.662Z,101475.16
2024-05-09T18:30:35.143Z,101477.19
2024-05-09T18:33:05.836Z,101477.88
2024-05-09T18:35:34.360Z,101475.16
2024-05-09T18:38:00.989Z,101482.31
2024-05-09T18:40:33.315Z,101481.97
2024-05-09T18:43:03.605Z,101477.06
2024-05-09T18:45:30.874Z,101478.94
2024-05-09T18:47:58.054Z,101489.31
2024-05-09T18:50:32.516Z,101487.44
2024-05-09T18:53:05.831Z,101487.78
2024-05-09T18:55:32.779Z,101492.31
2024-05-09T18:57:59.605Z,101493.50
2024-05-09T19:00:33.784Z,101492.97
2024-05-09T19:03:06.069Z,101499.09
2024-05-09T19:05:35.044Z,101504.91
2024-05-09T19:08:02.419Z,101502.34
2024-05-09T19:10:34.043Z,101509.19
2024-05-09T19:13:05.419Z,101510.59
2024-05-09T19:15:35.754Z,101520.53
2024-05-09T19:18:02.963Z,101519.88
2024-05-09T19:20:34.346Z,101523.81
2024-05-09T19:23:02.787Z,101525.66
2024-05-09T19:25:29.649Z,101533.16
2024-05-09T19:27:56.434Z,101546.47
2024-05-09T19:30:30.467Z,101546.13
2024-05-09T19:33:05.747Z,101551.72
2024-05-09T19:35:32.672Z,101556.66
2024-05-09T19:37:59.449Z,101554.97
2024-05-09T19:40:31.346Z,101559.06
2024-05-09T19:43:00.514Z,101563.31
2024-05-09T19:45:27.299Z,101561.44
2024-05-09T19:47:54.198Z,101573.38
2024-05-09T19:50:27.147Z,101570.97
2024-05-09T19:53:03.065Z,101569.59
2024-05-09T19:55:29.924Z,101575.06
2024-05-09T19:58:00.024Z,101568.59
2024-05-09T20:00:32.968Z,101580.34
2024-05-09T20:03:03.127Z,101583.91
2024-05-09T20:05:33.356Z,101585.94
2024-05-09T20:08:00.256Z,101591.06
2024-05-09T20:10:31.998Z,101590.69
2024-05-09T20:13:00.955Z,101596.34
2024-05-09T20:15:27.757Z,101599.22
2024-05-09T20:17:54.962Z,101603.63
2024-05-09T20:22:51.976Z,101614.03
2024-05-09T20:25:18.895Z,101618.97
2024-05-09T20:27:45.724Z,101615.56
2024-05-09T20:30:17.077Z,101618.63
2024-05-09T20:32:48.180Z,101618.78
2024-05-09T20:35:14.966Z,101627.63
2024-05-09T20:37:41.593Z,101614.19
2024-05-09T20:40:15.359Z,101619.63
2024-05-09T20:42:45.414Z,101618.78
2024-05-09T20:45:12.098Z,101614.53
2024-05-09T20:47:38.991Z,101622.00
2024-05-09T20:50:11.422Z,101613.84
2024-05-09T20:52:43.040Z,101619.28
2024-05-09T20:55:09.833Z,101615.69
2024-05-09T20:57:36.609Z,101624.03
2024-05-09T21:00:07.346Z,101621.63
2024-05-09T21:02:38.294Z,101615.84
2024-05-09T21:07:31.854Z,101611.06
2024-05-09T21:09:58.601Z,101615.00
2024-05-09T21:12:25.329Z,101612.59
2024-05-09T21:14:51.994Z,101619.22
2024-05-09T21:17:18.744Z,101621.25
2024-05-09T21:19:45.483Z,101616.28
2024-05-09T21:22:12.174Z,101611.16
2024-05-09T21:24:38.930Z,101617.78
2024-05-09T21:27:05.626Z,101612.50
2024-05-09T21:29:32.279Z,101608.25
2024-05-09T21:31:58.975Z,101615.72
2024-05-09T21:34:25.777Z,101615.19
2024-05-09T21:36:52.569Z,101616.38
2024-05-09T21:39:19.504Z,101616.38
2024-05-09T21:41:46.083Z,101618.41
2024-05-09T21:44:12.704Z,101623.16
2024-05-09T21:46:39.390Z,101618.91
2024-05-09T21:49:06.132Z,101622.81
2024-05-09T21:51:32.838Z,101623.13
2024-05-09T21:53:59.596Z,101627.03
2024-05-09T21:56:26.302Z,101617.16
2024-05-09T21:58:52.896Z,101620.88
2024-05-09T22:01:19.679Z,101616.47
2024-05-09T22:03:46.510Z,101624.78
2024-05-09T22:06:13.242Z,101624.78
2024-05-09T22:08:39.878Z,101628.69
2024-05-09T22:11:06.556Z,101628.00
2024-05-09T22:13:33.301Z,101632.91
2024-05-09T22:15:59.970Z,101625.25
2024-05-09T22:18:26.798Z,101625.88
2024-05-09T22:20:54.776Z,101631.13
2024-05-09T22:23:21.689Z,101628.00
2024-05-09T22:25:48.312Z,101624.25
2024-05-09T22:28:16.011Z,101629.97
2024-05-09T22:30:44.101Z,101626.88
2024-05-09T22:33:12.126Z,101628.88
2024-05-09T22:35:40.369Z,101631.75
2024-05-09T22:38:07.418Z,101636.69
2024-05-09T22:40:44.793Z,101630.69
2024-05-09T22:43:19.961Z,101624.41
2024-05-09T22:45:47.402Z,101624.72
2024-05-09T22:48:14.290Z,101629.16
2024-05-09T22:50:41.212Z,101628.28
2024-05-09T22:53:07.981Z,101630.47
2024-05-09T22:55:34.655Z,101631.81
2024-05-09T22:58:01.415Z,101639.25
2024-05-09T23:00:31.783Z,101629.72
2024-05-09T23:03:03.310Z,101640.19
2024-05-09T23:05:32.093Z,101638.78
2024-05-09T23:07:59.010Z,101640.66
2024-05-09T23:10:32.342Z,101642.53
2024-05-09T23:13:03.587Z,101647.13
2024-05-09T23:15:30.565Z,101647.59
2024-05-09T23:17:58.133Z,101648.38
2024-05-09T23:20:33.800Z,101645.94
2024-05-09T23:23:08.757Z,101658.13
2024-05-09T23:25:37.057Z,101655.72
2024-05-09T23:28:04.504Z,101660.47
2024-05-09T23:30:37.588Z,101654.00
2024-05-09T23:33:07.719Z,101656.91
2024-05-09T23:35:34.716Z,101656.91
2024-05-09T23:38:01.397Z,101657.88
2024-05-09T23:40:37.567Z,101658.06
2024-05-09T23:43:07.844Z,101650.06
2024-05-09T23:45:35.094Z,101653.78
2024-05-09T23:48:02.088Z,101648.53
2024-05-09T23:52:58.476Z,101655.63
2024-05-09T23:55:25.177Z,101648.34
2024-05-09T23:57:52.016Z,101651.75
